sensor_id;sensor_type;location;lat;lon;timestamp;temperature;humidity
59162;DHT22;44942;48.936;8.260;2022-10-30T00:00:14;21.40;62.10
59162;DHT22;44942;48.936;8.260;2022-10-30T00:05:16;21.40;62.10
59162;DHT22;44942;48.936;8.260;2022-10-30T00:10:17;21.40;62.10
59162;DHT22;44942;48.936;8.260;2022-10-30T00:15:17;21.30;62.20
59162;DHT22;44942;48.936;8.260;2022-10-30T00:20:18;21.20;62.70
59162;DHT22;44942;48.936;8.260;2022-10-30T00:25:18;21.30;62.20
59162;DHT22;44942;48.936;8.260;2022-10-30T00:30:19;21.30;62.20
59162;DHT22;44942;48.936;8.260;2022-10-30T00:35:19;21.30;62.20
59162;DHT22;44942;48.936;8.260;2022-10-30T00:40:20;21.30;62.10
59162;DHT22;44942;48.936;8.260;2022-10-30T00:45:21;21.30;62.20
59162;DHT22;44942;48.936;8.260;2022-10-30T00:50:27;21.30;62.20
59162;DHT22;44942;48.936;8.260;2022-10-30T00:55:32;21.30;62.20
59162;DHT22;44942;48.936;8.260;2022-10-30T01:00:35;21.30;62.30
59162;DHT22;44942;48.936;8.260;2022-10-30T01:05:38;21.30;62.30
59162;DHT22;44942;48.936;8.260;2022-10-30T01:10:39;21.30;62.30
59162;DHT22;44942;48.936;8.260;2022-10-30T01:21:11;21.30;62.20
59162;DHT22;44942;48.936;8.260;2022-10-30T01:26:19;21.30;62.20
59162;DHT22;44942;48.936;8.260;2022-10-30T01:36:51;21.30;62.20
59162;DHT22;44942;48.936;8.260;2022-10-30T01:41:54;21.30;62.20
59162;DHT22;44942;48.936;8.260;2022-10-30T01:57:22;21.30;62.00
59162;DHT22;44942;48.936;8.260;2022-10-30T02:02:28;21.30;62.00
59162;DHT22;44942;48.936;8.260;2022-10-30T02:07:30;21.30;62.10
59162;DHT22;44942;48.936;8.260;2022-10-30T02:12:30;21.30;62.00
59162;DHT22;44942;48.936;8.260;2022-10-30T02:17:31;21.30;61.90
59162;DHT22;44942;48.936;8.260;2022-10-30T02:22:32;21.30;61.90
59162;DHT22;44942;48.936;8.260;2022-10-30T02:27:32;21.30;61.90
59162;DHT22;44942;48.936;8.260;2022-10-30T02:32:33;21.30;61.80
59162;DHT22;44942;48.936;8.260;2022-10-30T02:37:34;21.30;61.80
59162;DHT22;44942;48.936;8.260;2022-10-30T02:42:38;21.30;61.70
59162;DHT22;44942;48.936;8.260;2022-10-30T02:47:39;21.20;61.60
59162;DHT22;44942;48.936;8.260;2022-10-30T02:52:39;21.20;61.60
59162;DHT22;44942;48.936;8.260;2022-10-30T02:57:40;21.20;61.50
59162;DHT22;44942;48.936;8.260;2022-10-30T03:02:41;21.20;61.50
59162;DHT22;44942;48.936;8.260;2022-10-30T03:07:41;21.20;61.60
59162;DHT22;44942;48.936;8.260;2022-10-30T03:12:42;21.00;61.60
59162;DHT22;44942;48.936;8.260;2022-10-30T03:17:42;21.00;61.60
59162;DHT22;44942;48.936;8.260;2022-10-30T03:22:43;21.00;61.40
59162;DHT22;44942;48.936;8.260;2022-10-30T03:27:44;21.00;61.30
59162;DHT22;44942;48.936;8.260;2022-10-30T03:32:44;21.00;61.20
59162;DHT22;44942;48.936;8.260;2022-10-30T03:37:46;21.00;61.10
59162;DHT22;44942;48.936;8.260;2022-10-30T03:42:46;21.00;60.90
59162;DHT22;44942;48.936;8.260;2022-10-30T03:47:47;21.00;60.90
59162;DHT22;44942;48.936;8.260;2022-10-30T03:52:47;21.00;60.80
59162;DHT22;44942;48.936;8.260;2022-10-30T03:57:48;21.00;60.80
59162;DHT22;44942;48.936;8.260;2022-10-30T04:02:50;21.00;60.80
59162;DHT22;44942;48.936;8.260;2022-10-30T04:07:59;21.00;60.70
59162;DHT22;44942;48.936;8.260;2022-10-30T04:13:01;21.00;60.60
59162;DHT22;44942;48.936;8.260;2022-10-30T04:18:02;20.90;60.50
59162;DHT22;44942;48.936;8.260;2022-10-30T04:23:06;20.90;60.40
59162;DHT22;44942;48.936;8.260;2022-10-30T04:28:07;20.90;60.30
59162;DHT22;44942;48.936;8.260;2022-10-30T04:33:12;20.90;60.30
59162;DHT22;44942;48.936;8.260;2022-10-30T04:38:14;20.90;60.30
59162;DHT22;44942;48.936;8.260;2022-10-30T04:43:15;20.80;60.10
59162;DHT22;44942;48.936;8.260;2022-10-30T04:48:17;20.80;60.20
59162;DHT22;44942;48.936;8.260;2022-10-30T04:53:18;20.90;60.20
59162;DHT22;44942;48.936;8.260;2022-10-30T04:58:19;20.90;60.10
59162;DHT22;44942;48.936;8.260;2022-10-30T05:03:21;20.80;60.00
59162;DHT22;44942;48.936;8.260;2022-10-30T05:08:22;20.80;60.00
59162;DHT22;44942;48.936;8.260;2022-10-30T05:13:23;20.80;60.00
59162;DHT22;44942;48.936;8.260;2022-10-30T05:18:23;20.80;59.90
59162;DHT22;44942;48.936;8.260;2022-10-30T05:23:24;20.80;59.90
59162;DHT22;44942;48.936;8.260;2022-10-30T05:28:24;20.80;59.80
59162;DHT22;44942;48.936;8.260;2022-10-30T05:33:25;20.80;59.80
59162;DHT22;44942;48.936;8.260;2022-10-30T05:38:25;20.70;59.70
59162;DHT22;44942;48.936;8.260;2022-10-30T05:43:26;20.70;59.60
59162;DHT22;44942;48.936;8.260;2022-10-30T05:48:27;20.70;59.60
59162;DHT22;44942;48.936;8.260;2022-10-30T05:53:27;20.70;59.60
59162;DHT22;44942;48.936;8.260;2022-10-30T05:58:28;20.70;59.40
59162;DHT22;44942;48.936;8.260;2022-10-30T06:03:28;20.70;59.10
59162;DHT22;44942;48.936;8.260;2022-10-30T06:08:29;20.60;58.70
59162;DHT22;44942;48.936;8.260;2022-10-30T06:13:29;20.50;58.50
59162;DHT22;44942;48.936;8.260;2022-10-30T06:18:30;20.50;58.30
59162;DHT22;44942;48.936;8.260;2022-10-30T06:23:30;20.50;58.00
59162;DHT22;44942;48.936;8.260;2022-10-30T06:28:31;20.50;57.90
59162;DHT22;44942;48.936;8.260;2022-10-30T06:33:32;20.40;57.70
59162;DHT22;44942;48.936;8.260;2022-10-30T06:38:32;20.40;57.60
59162;DHT22;44942;48.936;8.260;2022-10-30T06:43:33;20.40;57.50
59162;DHT22;44942;48.936;8.260;2022-10-30T06:48:33;20.40;57.40
59162;DHT22;44942;48.936;8.260;2022-10-30T06:53:34;20.30;57.30
59162;DHT22;44942;48.936;8.260;2022-10-30T06:58:35;20.30;57.30
59162;DHT22;44942;48.936;8.260;2022-10-30T07:03:38;20.30;57.30
59162;DHT22;44942;48.936;8.260;2022-10-30T07:08:38;20.30;57.30
59162;DHT22;44942;48.936;8.260;2022-10-30T07:13:39;20.30;57.30
59162;DHT22;44942;48.936;8.260;2022-10-30T07:18:40;20.20;57.30
59162;DHT22;44942;48.936;8.260;2022-10-30T07:23:40;20.20;57.70
59162;DHT22;44942;48.936;8.260;2022-10-30T07:28:42;20.20;58.00
59162;DHT22;44942;48.936;8.260;2022-10-30T07:33:42;20.20;58.40
59162;DHT22;44942;48.936;8.260;2022-10-30T07:38:43;20.30;58.70
59162;DHT22;44942;48.936;8.260;2022-10-30T07:43:44;20.30;58.90
59162;DHT22;44942;48.936;8.260;2022-10-30T07:48:45;20.30;59.10
59162;DHT22;44942;48.936;8.260;2022-10-30T07:53:45;20.30;59.30
59162;DHT22;44942;48.936;8.260;2022-10-30T07:58:46;20.30;59.40
59162;DHT22;44942;48.936;8.260;2022-10-30T08:03:46;20.40;59.60
59162;DHT22;44942;48.936;8.260;2022-10-30T08:08:47;20.40;59.80
59162;DHT22;44942;48.936;8.260;2022-10-30T08:13:47;20.40;59.90
59162;DHT22;44942;48.936;8.260;2022-10-30T08:18:48;20.40;60.00
59162;DHT22;44942;48.936;8.260;2022-10-30T08:23:49;20.50;60.30
59162;DHT22;44942;48.936;8.260;2022-10-30T08:28:50;20.50;60.30
59162;DHT22;44942;48.936;8.260;2022-10-30T08:33:51;20.50;60.50
59162;DHT22;44942;48.936;8.260;2022-10-30T08:38:52;20.60;60.50
59162;DHT22;44942;48.936;8.260;2022-10-30T08:43:52;20.60;60.60
59162;DHT22;44942;48.936;8.260;2022-10-30T08:48:53;20.60;60.70
59162;DHT22;44942;48.936;8.260;2022-10-30T08:53:54;20.60;60.70
59162;DHT22;44942;48.936;8.260;2022-10-30T08:58:55;20.60;60.80
59162;DHT22;44942;48.936;8.260;2022-10-30T09:03:55;20.70;61.00
59162;DHT22;44942;48.936;8.260;2022-10-30T09:08:56;20.70;61.10
59162;DHT22;44942;48.936;8.260;2022-10-30T09:13:57;20.70;61.20
59162;DHT22;44942;48.936;8.260;2022-10-30T09:18:57;20.80;61.20
59162;DHT22;44942;48.936;8.260;2022-10-30T09:23:58;20.80;61.20
59162;DHT22;44942;48.936;8.260;2022-10-30T09:28:58;20.90;61.30
59162;DHT22;44942;48.936;8.260;2022-10-30T09:33:59;20.90;61.40
59162;DHT22;44942;48.936;8.260;2022-10-30T09:39:00;20.90;61.40
59162;DHT22;44942;48.936;8.260;2022-10-30T09:44:27;21.00;61.50
59162;DHT22;44942;48.936;8.260;2022-10-30T09:55:26;21.00;61.40
59162;DHT22;44942;48.936;8.260;2022-10-30T10:00:36;21.00;61.40
59162;DHT22;44942;48.936;8.260;2022-10-30T10:10:51;21.10;61.50
59162;DHT22;44942;48.936;8.260;2022-10-30T10:15:58;21.10;61.40
59162;DHT22;44942;48.936;8.260;2022-10-30T10:21:08;21.10;61.40
59162;DHT22;44942;48.936;8.260;2022-10-30T10:26:17;21.10;61.40
59162;DHT22;44942;48.936;8.260;2022-10-30T10:42:18;21.20;61.40
59162;DHT22;44942;48.936;8.260;2022-10-30T10:47:32;21.20;61.40
59162;DHT22;44942;48.936;8.260;2022-10-30T10:53:16;21.20;61.40
59162;DHT22;44942;48.936;8.260;2022-10-30T11:04:02;21.20;61.40
59162;DHT22;44942;48.936;8.260;2022-10-30T11:19:21;21.20;61.30
59162;DHT22;44942;48.936;8.260;2022-10-30T11:24:26;21.30;61.40
59162;DHT22;44942;48.936;8.260;2022-10-30T11:29:28;21.30;61.30
59162;DHT22;44942;48.936;8.260;2022-10-30T11:34:33;21.30;61.30
59162;DHT22;44942;48.936;8.260;2022-10-30T11:39:34;21.30;61.40
59162;DHT22;44942;48.936;8.260;2022-10-30T11:44:53;21.30;61.40
59162;DHT22;44942;48.936;8.260;2022-10-30T11:50:00;21.30;61.40
59162;DHT22;44942;48.936;8.260;2022-10-30T12:00:26;21.40;61.50
59162;DHT22;44942;48.936;8.260;2022-10-30T12:10:29;21.40;61.60
59162;DHT22;44942;48.936;8.260;2022-10-30T12:15:34;21.40;61.60
59162;DHT22;44942;48.936;8.260;2022-10-30T12:20:37;21.40;62.50
59162;DHT22;44942;48.936;8.260;2022-10-30T12:25:37;21.40;61.70
59162;DHT22;44942;48.936;8.260;2022-10-30T12:30:48;21.40;61.70
59162;DHT22;44942;48.936;8.260;2022-10-30T12:35:58;21.50;62.00
59162;DHT22;44942;48.936;8.260;2022-10-30T12:46:32;21.50;62.00
59162;DHT22;44942;48.936;8.260;2022-10-30T12:57:07;21.50;61.90
59162;DHT22;44942;48.936;8.260;2022-10-30T13:02:19;21.60;61.90
59162;DHT22;44942;48.936;8.260;2022-10-30T13:07:36;21.60;61.90
59162;DHT22;44942;48.936;8.260;2022-10-30T13:12:39;21.60;61.90
59162;DHT22;44942;48.936;8.260;2022-10-30T13:17:41;21.70;62.00
59162;DHT22;44942;48.936;8.260;2022-10-30T13:22:57;21.70;62.00
59162;DHT22;44942;48.936;8.260;2022-10-30T13:28:18;21.70;61.90
59162;DHT22;44942;48.936;8.260;2022-10-30T13:39:21;21.70;61.80
59162;DHT22;44942;48.936;8.260;2022-10-30T13:44:45;21.70;61.70
59162;DHT22;44942;48.936;8.260;2022-10-30T13:50:05;21.70;61.70
59162;DHT22;44942;48.936;8.260;2022-10-30T13:55:21;21.80;61.70
59162;DHT22;44942;48.936;8.260;2022-10-30T14:06:20;21.80;61.70
59162;DHT22;44942;48.936;8.260;2022-10-30T14:11:23;21.90;61.70
59162;DHT22;44942;48.936;8.260;2022-10-30T14:16:43;21.80;61.60
59162;DHT22;44942;48.936;8.260;2022-10-30T14:21:53;21.90;61.80
59162;DHT22;44942;48.936;8.260;2022-10-30T14:27:16;21.90;61.90
59162;DHT22;44942;48.936;8.260;2022-10-30T14:47:35;21.90;62.00
59162;DHT22;44942;48.936;8.260;2022-10-30T15:02:56;22.00;62.20
59162;DHT22;44942;48.936;8.260;2022-10-30T15:08:25;22.00;62.20
59162;DHT22;44942;48.936;8.260;2022-10-30T15:13:30;22.00;62.20
59162;DHT22;44942;48.936;8.260;2022-10-30T15:18:31;22.00;62.10
59162;DHT22;44942;48.936;8.260;2022-10-30T15:23:34;22.00;62.00
59162;DHT22;44942;48.936;8.260;2022-10-30T15:28:36;22.10;62.10
59162;DHT22;44942;48.936;8.260;2022-10-30T15:33:39;22.00;62.00
59162;DHT22;44942;48.936;8.260;2022-10-30T15:38:40;22.00;62.00
59162;DHT22;44942;48.936;8.260;2022-10-30T15:43:42;22.10;62.00
59162;DHT22;44942;48.936;8.260;2022-10-30T15:48:45;22.00;61.90
59162;DHT22;44942;48.936;8.260;2022-10-30T15:53:57;22.00;61.90
59162;DHT22;44942;48.936;8.260;2022-10-30T15:59:00;22.00;62.10
59162;DHT22;44942;48.936;8.260;2022-10-30T16:04:02;22.00;62.20
59162;DHT22;44942;48.936;8.260;2022-10-30T16:09:03;22.00;62.30
59162;DHT22;44942;48.936;8.260;2022-10-30T16:14:07;22.00;62.30
59162;DHT22;44942;48.936;8.260;2022-10-30T16:19:16;22.10;62.50
59162;DHT22;44942;48.936;8.260;2022-10-30T16:24:18;22.10;62.60
59162;DHT22;44942;48.936;8.260;2022-10-30T16:29:25;22.10;62.60
59162;DHT22;44942;48.936;8.260;2022-10-30T16:34:29;22.00;62.50
59162;DHT22;44942;48.936;8.260;2022-10-30T16:39:31;22.00;62.50
59162;DHT22;44942;48.936;8.260;2022-10-30T16:44:34;22.00;62.40
59162;DHT22;44942;48.936;8.260;2022-10-30T16:49:35;22.00;62.50
59162;DHT22;44942;48.936;8.260;2022-10-30T16:54:39;22.00;62.50
59162;DHT22;44942;48.936;8.260;2022-10-30T16:59:46;22.00;62.40
59162;DHT22;44942;48.936;8.260;2022-10-30T17:04:52;22.00;62.30
59162;DHT22;44942;48.936;8.260;2022-10-30T17:09:55;22.00;62.10
59162;DHT22;44942;48.936;8.260;2022-10-30T17:20:13;22.00;62.00
59162;DHT22;44942;48.936;8.260;2022-10-30T17:25:31;22.00;61.90
59162;DHT22;44942;48.936;8.260;2022-10-30T17:30:41;22.10;62.00
59162;DHT22;44942;48.936;8.260;2022-10-30T17:35:42;22.10;62.10
59162;DHT22;44942;48.936;8.260;2022-10-30T17:40:42;22.00;62.00
59162;DHT22;44942;48.936;8.260;2022-10-30T17:45:43;22.10;62.10
59162;DHT22;44942;48.936;8.260;2022-10-30T17:50:44;22.10;62.10
59162;DHT22;44942;48.936;8.260;2022-10-30T17:55:46;22.10;62.00
59162;DHT22;44942;48.936;8.260;2022-10-30T18:00:48;22.10;62.10
59162;DHT22;44942;48.936;8.260;2022-10-30T18:05:48;22.10;62.10
59162;DHT22;44942;48.936;8.260;2022-10-30T18:10:49;22.10;62.10
59162;DHT22;44942;48.936;8.260;2022-10-30T18:15:56;22.10;62.10
59162;DHT22;44942;48.936;8.260;2022-10-30T18:20:57;22.10;62.00
59162;DHT22;44942;48.936;8.260;2022-10-30T18:25:57;22.10;62.10
59162;DHT22;44942;48.936;8.260;2022-10-30T18:30:58;22.10;62.10
59162;DHT22;44942;48.936;8.260;2022-10-30T18:36:00;22.10;62.10
59162;DHT22;44942;48.936;8.260;2022-10-30T18:41:02;22.10;62.10
59162;DHT22;44942;48.936;8.260;2022-10-30T18:46:02;22.20;62.40
59162;DHT22;44942;48.936;8.260;2022-10-30T18:51:04;22.20;61.90
59162;DHT22;44942;48.936;8.260;2022-10-30T18:56:07;22.20;62.00
59162;DHT22;44942;48.936;8.260;2022-10-30T19:01:08;22.10;62.40
59162;DHT22;44942;48.936;8.260;2022-10-30T19:06:14;22.10;62.50
59162;DHT22;44942;48.936;8.260;2022-10-30T19:11:18;22.20;62.40
59162;DHT22;44942;48.936;8.260;2022-10-30T19:16:19;22.20;62.40
59162;DHT22;44942;48.936;8.260;2022-10-30T19:21:22;22.20;62.30
59162;DHT22;44942;48.936;8.260;2022-10-30T19:26:24;22.20;62.30
59162;DHT22;44942;48.936;8.260;2022-10-30T19:31:25;22.20;62.20
59162;DHT22;44942;48.936;8.260;2022-10-30T19:36:30;22.20;62.20
59162;DHT22;44942;48.936;8.260;2022-10-30T19:41:32;22.20;62.20
59162;DHT22;44942;48.936;8.260;2022-10-30T19:46:33;22.20;62.20
59162;DHT22;44942;48.936;8.260;2022-10-30T19:51:34;22.30;62.20
59162;DHT22;44942;48.936;8.260;2022-10-30T19:56:35;22.20;62.20
59162;DHT22;44942;48.936;8.260;2022-10-30T20:01:35;22.20;62.20
59162;DHT22;44942;48.936;8.260;2022-10-30T20:06:36;22.30;63.10
59162;DHT22;44942;48.936;8.260;2022-10-30T20:11:36;22.30;62.20
59162;DHT22;44942;48.936;8.260;2022-10-30T20:16:37;22.30;62.20
59162;DHT22;44942;48.936;8.260;2022-10-30T20:21:38;22.30;62.10
59162;DHT22;44942;48.936;8.260;2022-10-30T20:26:38;22.30;62.20
59162;DHT22;44942;48.936;8.260;2022-10-30T20:31:41;22.30;62.00
59162;DHT22;44942;48.936;8.260;2022-10-30T20:36:41;22.30;62.10
59162;DHT22;44942;48.936;8.260;2022-10-30T20:41:42;22.30;62.00
59162;DHT22;44942;48.936;8.260;2022-10-30T20:46:42;22.30;61.80
59162;DHT22;44942;48.936;8.260;2022-10-30T20:51:43;22.20;61.60
59162;DHT22;44942;48.936;8.260;2022-10-30T20:56:43;22.20;61.60
59162;DHT22;44942;48.936;8.260;2022-10-30T21:01:44;22.20;61.60
59162;DHT22;44942;48.936;8.260;2022-10-30T21:06:44;22.20;61.60
59162;DHT22;44942;48.936;8.260;2022-10-30T21:11:45;22.20;61.60
59162;DHT22;44942;48.936;8.260;2022-10-30T21:16:46;22.30;61.60
59162;DHT22;44942;48.936;8.260;2022-10-30T21:21:46;22.20;61.60
59162;DHT22;44942;48.936;8.260;2022-10-30T21:26:47;22.30;61.70
59162;DHT22;44942;48.936;8.260;2022-10-30T21:31:47;22.30;61.70
59162;DHT22;44942;48.936;8.260;2022-10-30T21:36:48;22.30;61.70
59162;DHT22;44942;48.936;8.260;2022-10-30T21:41:49;22.30;61.70
59162;DHT22;44942;48.936;8.260;2022-10-30T21:46:49;22.30;61.80
59162;DHT22;44942;48.936;8.260;2022-10-30T21:51:50;22.30;61.70
59162;DHT22;44942;48.936;8.260;2022-10-30T21:56:51;22.30;61.80
59162;DHT22;44942;48.936;8.260;2022-10-30T22:01:51;22.30;61.80
59162;DHT22;44942;48.936;8.260;2022-10-30T22:06:52;22.30;61.70
59162;DHT22;44942;48.936;8.260;2022-10-30T22:11:52;22.30;61.70
59162;DHT22;44942;48.936;8.260;2022-10-30T22:16:53;22.30;61.70
59162;DHT22;44942;48.936;8.260;2022-10-30T22:21:53;22.30;61.70
59162;DHT22;44942;48.936;8.260;2022-10-30T22:26:54;22.30;61.60
59162;DHT22;44942;48.936;8.260;2022-10-30T22:31:54;22.30;61.60
59162;DHT22;44942;48.936;8.260;2022-10-30T22:36:55;22.30;61.50
59162;DHT22;44942;48.936;8.260;2022-10-30T22:41:55;22.30;61.50
59162;DHT22;44942;48.936;8.260;2022-10-30T22:46:56;22.30;61.50
59162;DHT22;44942;48.936;8.260;2022-10-30T22:51:57;22.30;61.50
59162;DHT22;44942;48.936;8.260;2022-10-30T22:56:57;22.30;61.50
59162;DHT22;44942;48.936;8.260;2022-10-30T23:01:58;22.30;61.50
59162;DHT22;44942;48.936;8.260;2022-10-30T23:06:58;22.20;61.40
59162;DHT22;44942;48.936;8.260;2022-10-30T23:11:59;22.30;61.50
59162;DHT22;44942;48.936;8.260;2022-10-30T23:16:59;22.20;61.40
59162;DHT22;44942;48.936;8.260;2022-10-30T23:22:00;22.20;61.30
59162;DHT22;44942;48.936;8.260;2022-10-30T23:27:00;22.20;61.20
59162;DHT22;44942;48.936;8.260;2022-10-30T23:32:01;22.20;61.30
59162;DHT22;44942;48.936;8.260;2022-10-30T23:37:01;22.20;61.20
59162;DHT22;44942;48.936;8.260;2022-10-30T23:42:02;22.20;61.20
59162;DHT22;44942;48.936;8.260;2022-10-30T23:47:03;22.20;61.20
59162;DHT22;44942;48.936;8.260;2022-10-30T23:52:04;22.20;61.10
59162;DHT22;44942;48.936;8.260;2022-10-30T23:57:04;22.20;61.10
